Terminal Aerodrome Forecast
Issued by NWS

Home | Current Version | Previous Version | Text Only | Print | Product List | Glossary On
Versions: 1 2 3 4 5 6 7 8 9 10 11 12 13 14 15
000
FTUS44 KBMX 190539
TAFTOI
TAF
KTOI 190539Z 1906/2006 31012G20KT P6SM VCSH SCT023 OVC050
      TEMPO 1906/1909 BKN023 OVC050
     FM190900 32012G19KT P6SM BKN050
     FM191100 33011KT P6SM SKC
     FM191500 34014G21KT P6SM SKC
     FM200000 33006KT P6SM SKC=

USA.gov is the U.S. government's official web portal to all federal, state and local government web resources and services.